Time;durP1;ratioP1;P1;durP2;ratioP2;P2;SDS_P1;SDS_P2;PMS_P1;PMS_P2;Temp;Humidity;BMP_temperature;BMP_pressure;BME280_temperature;BME280_humidity;BME280_pressure;Samples;Min_cycle;Max_cycle;Signal;HPM_P1;HPM_P2
2023/12/16 00:33:19;;;;;;;;;;;;;;;7.76;48.19;102095.09;106321;1257;72373;-83
2023/12/16 00:35:59;;;;;;;;;;;;;;;7.76;48.19;102100.36;106110;1256;61210;-87
2023/12/16 00:38:38;;;;;;;;;;;;;;;7.73;48.24;102102.52;106529;1257;61202;-86
2023/12/16 00:41:12;;;;;;;;;;;;;;;7.65;48.32;102101.14;106223;1254;74703;-87
2023/12/16 00:43:52;;;;;;;;;;;;;;;7.72;48.38;102101.27;106400;1254;67261;-83
2023/12/16 00:46:31;;;;;;;;;;;;;;;7.84;48.09;102099.23;106129;1260;72680;-84
2023/12/16 00:49:05;;;;;;;;;;;;;;;7.83;48.09;102102.29;106176;1259;64243;-87
2023/12/16 00:51:39;;;;;;;;;;;;;;;7.74;48.23;102103.65;106320;1254;61260;-84
2023/12/16 00:54:07;;;;;;;;;;;;;;;7.78;48.21;102105.09;106278;1259;75077;-87
2023/12/16 00:56:39;;;;;;;;;;;;;;;7.85;48.12;102105.21;106119;1259;67620;-87
2023/12/16 00:59:16;;;;;;;;;;;;;;;7.87;48.22;102108.89;106429;1259;72667;-83
2023/12/16 01:01:43;;;;;;;;;;;;;;;7.83;48.13;102109.82;106232;1259;61340;-87
2023/12/16 01:04:17;;;;;;;;;;;;;;;7.80;48.33;102108.96;106372;1254;61140;-87
2023/12/16 01:06:57;;;;;;;;;;;;;;;7.90;48.26;102106.29;106123;1260;74809;-83
2023/12/16 01:09:31;;;;;;;;;;;;;;;7.95;48.16;102101.11;106144;1254;67489;-83
2023/12/16 01:12:05;;;;;;;;;;;;;;;7.85;48.18;102098.68;106232;1257;71392;-83
2023/12/16 01:14:38;;;;;;;;;;;;;;;7.84;48.16;102100.64;106342;1254;61270;-87
2023/12/16 01:17:12;;;;;;;;;;;;;;;7.84;48.17;102105.13;106292;1255;61123;-83
2023/12/16 01:19:45;;;;;;;;;;;;;;;7.72;48.50;102104.55;106231;1258;75129;-86
2023/12/16 01:22:13;;;;;;;;;;;;;;;7.66;48.69;102110.40;106120;1259;68713;-87
2023/12/16 01:24:47;;;;;;;;;;;;;;;7.67;48.50;102107.01;106201;1260;71598;-83
2023/12/16 01:27:21;;;;;;;;;;;;;;;7.67;48.58;102108.46;106335;1257;61157;-83
2023/12/16 01:29:54;;;;;;;;;;;;;;;7.68;48.59;102105.82;106258;1255;61237;-84
2023/12/16 01:32:28;;;;;;;;;;;;;;;7.83;48.24;102103.30;106189;1254;73445;-87
2023/12/16 01:35:02;;;;;;;;;;;;;;;7.79;48.35;102101.98;106233;1255;68730;-86
2023/12/16 01:37:36;;;;;;;;;;;;;;;7.70;48.73;102101.33;106255;1259;71442;-87
2023/12/16 01:40:10;;;;;;;;;;;;;;;7.63;48.65;102101.95;106259;1260;61304;-86
2023/12/16 01:42:37;;;;;;;;;;;;;;;7.67;48.62;102101.30;106229;1266;61341;-86
2023/12/16 01:45:12;;;;;;;;;;;;;;;7.77;48.49;102107.56;106282;1261;76471;-83
2023/12/16 01:47:46;;;;;;;;;;;;;;;7.84;48.38;102113.87;106212;1257;69149;-83
2023/12/16 01:50:20;;;;;;;;;;;;;;;7.68;48.66;102113.90;106250;1254;72674;-87
2023/12/16 01:52:54;;;;;;;;;;;;;;;7.67;48.69;102121.20;106480;1257;61204;-83
2023/12/16 01:55:26;;;;;;;;;;;;;;;7.79;48.42;102117.34;106331;1257;61414;-83
2023/12/16 01:58:00;;;;;;;;;;;;;;;7.77;48.11;102117.77;106238;1255;73424;-83
2023/12/16 02:00:40;;;;;;;;;;;;;;;7.83;48.10;102120.96;106121;1260;68347;-87
2023/12/16 02:03:13;;;;;;;;;;;;;;;7.87;47.92;102120.68;106342;1259;71096;-83
2023/12/16 02:05:53;;;;;;;;;;;;;;;7.87;47.66;102118.55;106237;1254;61939;-87
2023/12/16 02:08:33;;;;;;;;;;;;;;;7.86;47.91;102118.84;106238;1260;61309;-87
2023/12/16 02:11:12;;;;;;;;;;;;;;;7.84;47.80;102117.14;106358;1259;74652;-84
2023/12/16 02:13:51;;;;;;;;;;;;;;;7.74;48.18;102115.29;106563;1256;67169;-87
2023/12/16 02:16:25;;;;;;;;;;;;;;;7.73;48.13;102119.56;106386;1260;71449;-87
2023/12/16 02:19:05;;;;;;;;;;;;;;;7.71;48.32;102123.30;106200;1260;61250;-87
2023/12/16 02:21:44;;;;;;;;;;;;;;;7.67;48.38;102125.55;106332;1254;61309;-87
2023/12/16 02:24:19;;;;;;;;;;;;;;;7.57;48.55;102123.94;106377;1257;72496;-88
2023/12/16 02:26:53;;;;;;;;;;;;;;;7.60;48.59;102127.81;106248;1260;68377;-84
2023/12/16 02:29:23;;;;;;;;;;;;;;;7.59;48.80;102129.73;106347;1258;71553;-87
2023/12/16 02:31:55;;;;;;;;;;;;;;;7.55;48.93;102135.36;106333;1254;61410;-87
2023/12/16 02:34:33;;;;;;;;;;;;;;;7.55;49.14;102144.70;106105;1254;61135;-87
2023/12/16 02:37:07;;;;;;;;;;;;;;;7.59;48.86;102142.93;106141;1260;74704;-84
2023/12/16 02:39:40;;;;;;;;;;;;;;;7.50;49.07;102145.61;106282;1260;67526;-87
2023/12/16 02:42:20;;;;;;;;;;;;;;;7.47;49.33;102154.74;106292;1260;70395;-87
2023/12/16 02:44:48;;;;;;;;;;;;;;;7.47;49.43;102158.56;106135;1260;61240;-87
2023/12/16 02:47:21;;;;;;;;;;;;;;;7.44;49.48;102164.06;106285;1254;61215;-83
2023/12/16 02:49:55;;;;;;;;;;;;;;;7.42;49.34;102164.09;106453;1257;75089;-83
2023/12/16 02:52:29;;;;;;;;;;;;;;;7.53;49.26;102172.00;106233;1255;68454;-87
2023/12/16 02:55:02;;;;;;;;;;;;;;;7.59;49.23;102175.23;106245;1254;71420;-83
2023/12/16 02:57:30;;;;;;;;;;;;;;;7.60;49.14;102177.58;106325;1254;61281;-88
2023/12/16 03:00:04;;;;;;;;;;;;;;;7.62;49.04;102181.58;106166;1260;61228;-87
2023/12/16 03:02:38;;;;;;;;;;;;;;;7.62;48.97;102188.16;106389;1255;74685;-83
2023/12/16 03:05:06;;;;;;;;;;;;;;;7.64;48.80;102186.38;106384;1254;68612;-87
2023/12/16 03:07:39;;;;;;;;;;;;;;;7.61;48.75;102188.79;106341;1260;71454;-83
2023/12/16 03:10:14;;;;;;;;;;;;;;;7.60;48.89;102186.58;106631;1257;61350;-87
2023/12/16 03:12:48;;;;;;;;;;;;;;;7.61;48.86;102183.93;106236;1254;61220;-87
2023/12/16 03:15:27;;;;;;;;;;;;;;;7.60;48.81;102174.73;106325;1254;74749;-83
2023/12/16 03:18:01;;;;;;;;;;;;;;;7.67;48.74;102173.65;106176;1254;68559;-83
2023/12/16 03:20:41;;;;;;;;;;;;;;;7.68;48.63;102174.72;106330;1258;71562;-87
2023/12/16 03:23:15;;;;;;;;;;;;;;;7.66;48.85;102181.73;106285;1257;61261;-87
2023/12/16 03:25:48;;;;;;;;;;;;;;;7.62;49.03;102187.08;106110;1254;60117;-83
2023/12/16 03:28:28;;;;;;;;;;;;;;;7.59;49.11;102189.14;106368;1254;73344;-87
2023/12/16 03:31:02;;;;;;;;;;;;;;;7.46;49.86;102190.75;106228;1259;67114;-87
2023/12/16 03:33:42;;;;;;;;;;;;;;;7.42;49.95;102194.57;106426;1254;71297;-83
2023/12/16 03:36:22;;;;;;;;;;;;;;;7.49;49.89;102194.38;106399;1254;61231;-87
2023/12/16 03:38:51;;;;;;;;;;;;;;;7.45;50.07;102199.71;106332;1254;61401;-87
2023/12/16 03:41:31;;;;;;;;;;;;;;;7.45;50.19;102205.60;106361;1254;73478;-87
2023/12/16 03:44:11;;;;;;;;;;;;;;;7.42;50.32;102208.08;106227;1254;68372;-83
2023/12/16 03:46:41;;;;;;;;;;;;;;;7.41;50.37;102205.66;106379;1256;73096;-83
2023/12/16 03:49:19;;;;;;;;;;;;;;;7.27;50.80;102206.34;106175;1259;61362;-87
2023/12/16 03:51:53;;;;;;;;;;;;;;;7.19;51.23;102209.55;106231;1254;61826;-87
2023/12/16 03:54:31;;;;;;;;;;;;;;;7.24;51.17;102213.71;106129;1260;74732;-83
2023/12/16 03:57:11;;;;;;;;;;;;;;;7.28;51.40;102206.70;106291;1254;68516;-83
2023/12/16 03:59:44;;;;;;;;;;;;;;;7.41;50.91;102203.40;106468;1254;72684;-83
2023/12/16 04:02:24;;;;;;;;;;;;;;;7.39;51.00;102205.91;106256;1254;61225;-83
2023/12/16 04:04:58;;;;;;;;;;;;;;;7.38;51.09;102200.11;106188;1254;61421;-83
2023/12/16 04:07:32;;;;;;;;;;;;;;;7.53;50.91;102193.81;106340;1254;74865;-87
2023/12/16 04:10:06;;;;;;;;;;;;;;;7.65;50.60;102184.09;106206;1254;68698;-83
2023/12/16 04:12:39;;;;;;;;;;;;;;;7.74;50.64;102186.63;106233;1254;71317;-83
2023/12/16 04:15:13;;;;;;;;;;;;;;;7.79;50.46;102198.83;106204;1258;61294;-83
2023/12/16 04:17:47;;;;;;;;;;;;;;;7.85;50.28;102199.96;106092;1254;61339;-83
2023/12/16 04:20:14;;;;;;;;;;;;;;;7.89;50.40;102193.15;106153;1254;73501;-83
2023/12/16 04:22:48;;;;;;;;;;;;;;;7.88;50.32;102205.85;106248;1260;69098;-83
2023/12/16 04:25:28;;;;;;;;;;;;;;;7.82;50.42;102213.59;106179;1254;72728;-83
2023/12/16 04:27:55;;;;;;;;;;;;;;;7.62;50.97;102219.67;105916;1260;61319;-83
2023/12/16 04:30:29;;;;;;;;;;;;;;;7.72;50.96;102235.58;106345;1254;61238;-83
2023/12/16 04:33:09;;;;;;;;;;;;;;;7.73;50.73;102236.73;106220;1260;74586;-83
2023/12/16 04:35:49;;;;;;;;;;;;;;;7.72;50.93;102238.71;106191;1260;68717;-83
2023/12/16 04:38:29;;;;;;;;;;;;;;;7.67;50.92;102235.30;106169;1256;73097;-87
2023/12/16 04:41:02;;;;;;;;;;;;;;;7.74;51.09;102236.45;106407;1260;61250;-87
2023/12/16 04:43:42;;;;;;;;;;;;;;;7.83;50.82;102241.27;106298;1254;61306;-84
2023/12/16 04:46:28;;;;;;;;;;;;;;;7.75;50.75;102239.78;106204;1259;74675;-87
2023/12/16 04:49:02;;;;;;;;;;;;;;;7.64;51.17;102235.41;106310;1254;67126;-83
2023/12/16 04:51:42;;;;;;;;;;;;;;;7.57;51.30;102237.48;105985;1256;71385;-84
2023/12/16 04:54:16;;;;;;;;;;;;;;;7.53;51.61;102238.88;106147;1254;61410;-87
2023/12/16 04:56:50;;;;;;;;;;;;;;;7.55;51.42;102237.08;106017;1256;61163;-87
2023/12/16 04:59:26;;;;;;;;;;;;;;;7.58;51.33;102237.53;106381;1254;73468;-87
2023/12/16 05:01:58;;;;;;;;;;;;;;;7.45;51.83;102232.94;106245;1258;68401;-84
2023/12/16 05:04:32;;;;;;;;;;;;;;;7.48;51.82;102236.84;106297;1259;72669;-83
2023/12/16 05:07:08;;;;;;;;;;;;;;;7.59;51.61;102229.73;106171;1260;61127;-83
2023/12/16 05:09:36;;;;;;;;;;;;;;;7.48;51.90;102229.79;106230;1254;61220;-83
2023/12/16 05:12:12;;;;;;;;;;;;;;;7.50;52.03;102231.73;106210;1253;73475;-83
2023/12/16 05:14:45;;;;;;;;;;;;;;;7.57;51.64;102225.27;106354;1254;66784;-83
2023/12/16 05:17:25;;;;;;;;;;;;;;;7.60;51.62;102224.83;106486;1253;71688;-83
2023/12/16 05:20:05;;;;;;;;;;;;;;;7.59;51.66;102228.77;106326;1254;61287;-87
2023/12/16 05:22:45;;;;;;;;;;;;;;;7.60;51.72;102231.84;106423;1254;61270;-83
2023/12/16 05:25:18;;;;;;;;;;;;;;;7.69;51.47;102230.14;106329;1254;74703;-83
2023/12/16 05:27:52;;;;;;;;;;;;;;;7.77;51.17;102230.06;106380;1254;68372;-83
2023/12/16 05:30:26;;;;;;;;;;;;;;;7.72;51.32;102239.75;106314;1257;72486;-88
2023/12/16 05:32:55;;;;;;;;;;;;;;;7.73;51.20;102244.83;106346;1253;61232;-87
2023/12/16 05:35:35;;;;;;;;;;;;;;;7.78;51.12;102243.09;106412;1253;61382;-87
2023/12/16 05:38:03;;;;;;;;;;;;;;;7.82;51.01;102239.81;106138;1257;74540;-87
2023/12/16 05:40:43;;;;;;;;;;;;;;;7.92;50.93;102236.81;106267;1258;67580;-83
2023/12/16 05:43:17;;;;;;;;;;;;;;;7.99;50.73;102238.73;106140;1254;71140;-83
2023/12/16 05:45:50;;;;;;;;;;;;;;;8.03;50.65;102229.35;106355;1253;63097;-87
2023/12/16 05:48:24;;;;;;;;;;;;;;;8.15;50.37;102231.94;106287;1255;61155;-87
2023/12/16 05:50:58;;;;;;;;;;;;;;;8.23;50.26;102235.11;106235;1254;73497;-87
2023/12/16 05:53:32;;;;;;;;;;;;;;;8.32;49.97;102234.27;106357;1258;68387;-88
2023/12/16 05:56:06;;;;;;;;;;;;;;;8.31;49.98;102239.17;106377;1254;71359;-87
2023/12/16 05:58:40;;;;;;;;;;;;;;;8.25;50.15;102235.60;106444;1254;61242;-86
2023/12/16 06:01:19;;;;;;;;;;;;;;;8.26;50.21;102238.36;106607;1254;61411;-87
2023/12/16 06:03:54;;;;;;;;;;;;;;;8.27;50.14;102240.50;106417;1257;74751;-83
2023/12/16 06:06:27;;;;;;;;;;;;;;;8.24;50.17;102242.27;106705;1254;68849;-83
2023/12/16 06:09:01;;;;;;;;;;;;;;;8.30;50.19;102246.89;106399;1257;71473;-87
2023/12/16 06:11:35;;;;;;;;;;;;;;;8.29;50.40;102237.71;106236;1257;61242;-87
2023/12/16 06:14:09;;;;;;;;;;;;;;;8.27;50.43;102240.45;106283;1254;61459;-87
2023/12/16 06:16:43;;;;;;;;;;;;;;;8.37;50.32;102244.03;106287;1253;73392;-87
2023/12/16 06:19:16;;;;;;;;;;;;;;;8.49;50.13;102244.39;106468;1253;67285;-87
2023/12/16 06:21:50;;;;;;;;;;;;;;;8.46;50.34;102242.93;106169;1254;72610;-87
2023/12/16 06:24:24;;;;;;;;;;;;;;;8.50;50.35;102248.77;106268;1254;61343;-87
2023/12/16 06:26:57;;;;;;;;;;;;;;;8.44;50.69;102244.50;106429;1254;61343;-84
2023/12/16 06:29:31;;;;;;;;;;;;;;;8.44;50.85;102241.27;106251;1257;73418;-87
2023/12/16 06:32:05;;;;;;;;;;;;;;;8.45;50.95;102237.91;106193;1253;67934;-83
2023/12/16 06:34:38;;;;;;;;;;;;;;;8.29;51.62;102244.71;106080;1259;72706;-83
2023/12/16 06:37:18;;;;;;;;;;;;;;;8.29;51.74;102242.11;106134;1254;61301;-83
2023/12/16 06:39:58;;;;;;;;;;;;;;;8.25;52.14;102244.36;106252;1259;61353;-83
2023/12/16 06:42:42;;;;;;;;;;;;;;;8.31;52.25;102247.52;106237;1258;74716;-87
2023/12/16 06:45:22;;;;;;;;;;;;;;;8.30;52.35;102254.34;106281;1257;67446;-83
2023/12/16 06:48:01;;;;;;;;;;;;;;;8.37;52.44;102251.15;106233;1259;73557;-87
2023/12/16 06:50:41;;;;;;;;;;;;;;;8.37;52.46;102254.26;106383;1258;61276;-83
2023/12/16 06:53:21;;;;;;;;;;;;;;;8.40;52.50;102252.41;106017;1254;61248;-83
2023/12/16 06:56:01;;;;;;;;;;;;;;;8.45;52.59;102256.08;106431;1255;75074;-87
2023/12/16 06:58:43;;;;;;;;;;;;;;;8.60;52.39;102259.64;106467;1253;68813;-88
2023/12/16 07:01:17;;;;;;;;;;;;;;;8.62;52.36;102255.60;106397;1257;71117;-89
2023/12/16 07:03:51;;;;;;;;;;;;;;;8.49;52.82;102252.39;106351;1257;61347;-88
2023/12/16 07:06:24;;;;;;;;;;;;;;;8.64;52.72;102249.79;106431;1256;61232;-89
2023/12/16 07:08:58;;;;;;;;;;;;;;;8.74;52.64;102250.22;106420;1254;76557;-89
2023/12/16 07:11:34;;;;;;;;;;;;;;;8.78;52.71;102254.33;106572;1257;67158;-88
2023/12/16 07:14:09;;;;;;;;;;;;;;;8.80;52.60;102259.08;106590;1254;73319;-88
2023/12/16 07:16:43;;;;;;;;;;;;;;;8.79;52.60;102260.87;106611;1253;61285;-89
2023/12/16 07:19:17;;;;;;;;;;;;;;;8.84;52.78;102264.30;106355;1253;62103;-89
2023/12/16 07:21:51;;;;;;;;;;;;;;;8.85;52.61;102266.55;106463;1257;73668;-88
2023/12/16 07:24:24;;;;;;;;;;;;;;;8.85;52.98;102266.64;106380;1253;67652;-89
2023/12/16 07:26:58;;;;;;;;;;;;;;;8.80;53.21;102261.48;106419;1258;71311;-88
2023/12/16 07:29:31;;;;;;;;;;;;;;;8.88;53.15;102264.64;106387;1253;61259;-89
2023/12/16 07:32:05;;;;;;;;;;;;;;;8.91;53.26;102266.73;106402;1254;61355;-89
2023/12/16 07:34:40;;;;;;;;;;;;;;;9.02;53.12;102274.79;106585;1253;74617;-89
2023/12/16 07:37:14;;;;;;;;;;;;;;;9.19;52.72;102276.59;106463;1254;68392;-88
2023/12/16 07:39:48;;;;;;;;;;;;;;;9.25;52.56;102276.52;106406;1256;71797;-89
2023/12/16 07:42:21;;;;;;;;;;;;;;;8.97;53.28;102273.30;106437;1256;61323;-88
2023/12/16 07:44:55;;;;;;;;;;;;;;;8.94;53.53;102277.62;106275;1253;61286;-89
2023/12/16 07:47:29;;;;;;;;;;;;;;;8.98;53.51;102283.51;106415;1255;73570;-88
2023/12/16 07:50:03;;;;;;;;;;;;;;;9.09;53.37;102292.01;106328;1253;67125;-89
2023/12/16 07:52:37;;;;;;;;;;;;;;;9.22;53.20;102292.30;106378;1256;72711;-89
2023/12/16 07:55:11;;;;;;;;;;;;;;;9.26;53.18;102290.20;106223;1260;62119;-90
2023/12/16 07:57:44;;;;;;;;;;;;;;;9.46;52.72;102286.37;106249;1258;61153;-89
2023/12/16 08:00:19;;;;;;;;;;;;;;;9.51;52.67;102286.91;106369;1253;74664;-87
2023/12/16 08:02:56;;;;;;;;;;;;;;;9.39;52.98;102280.70;106202;1253;68347;-88
2023/12/16 08:05:30;;;;;;;;;;;;;;;9.34;53.06;102277.73;106335;1254;71452;-89
2023/12/16 08:08:03;;;;;;;;;;;;;;;9.54;52.68;102280.11;106535;1258;61363;-88
2023/12/16 08:10:37;;;;;;;;;;;;;;;9.56;52.51;102281.31;106372;1258;60807;-88
2023/12/16 08:13:12;;;;;;;;;;;;;;;9.56;52.35;102281.05;106764;1253;74704;-88
2023/12/16 08:15:45;;;;;;;;;;;;;;;9.54;52.81;102280.02;106814;1256;67150;-88
2023/12/16 08:18:19;;;;;;;;;;;;;;;9.55;52.56;102279.39;106430;1254;72677;-88
2023/12/16 08:20:54;;;;;;;;;;;;;;;9.60;52.20;102279.58;106235;1253;302558;-89
2023/12/16 08:23:34;;;;;;;;;;;;;;;9.64;52.02;102277.98;106286;1254;61245;-89
2023/12/16 08:26:14;;;;;;;;;;;;;;;9.66;51.87;102278.33;106367;1253;74726;-89
2023/12/16 08:28:54;;;;;;;;;;;;;;;9.70;51.81;102274.20;106513;1253;68467;-88
2023/12/16 08:31:28;;;;;;;;;;;;;;;9.56;52.21;102276.82;106334;1258;72994;-89
2023/12/16 08:34:07;;;;;;;;;;;;;;;9.52;52.40;102278.39;106371;1253;61385;-89
2023/12/16 08:36:48;;;;;;;;;;;;;;;9.49;52.32;102283.69;106435;1253;61395;-90
2023/12/16 08:39:28;;;;;;;;;;;;;;;9.50;52.41;102283.60;106332;1253;73773;-89
2023/12/16 08:41:56;;;;;;;;;;;;;;;9.63;52.23;102282.36;106294;1253;67702;-88
2023/12/16 08:44:36;;;;;;;;;;;;;;;9.78;52.17;102279.06;106042;1256;71360;-89
2023/12/16 08:47:16;;;;;;;;;;;;;;;9.92;51.78;102265.11;106309;1258;61587;-88
2023/12/16 08:49:55;;;;;;;;;;;;;;;9.91;51.64;102261.59;106208;1253;61407;-88
2023/12/16 08:52:23;;;;;;;;;;;;;;;9.96;51.06;102258.96;106550;1258;74596;-88
2023/12/16 08:54:57;;;;;;;;;;;;;;;9.93;50.82;102256.23;106529;1253;68429;-89
2023/12/16 08:57:31;;;;;;;;;;;;;;;9.81;50.89;102258.79;106178;1254;72786;-88
2023/12/16 09:00:05;;;;;;;;;;;;;;;9.81;50.86;102262.35;106336;1256;61310;-88
2023/12/16 09:02:33;;;;;;;;;;;;;;;9.91;50.82;102261.04;106234;1253;61232;-88
2023/12/16 09:05:07;;;;;;;;;;;;;;;10.05;50.72;102260.14;106133;1254;75210;-88
2023/12/16 09:07:47;;;;;;;;;;;;;;;10.14;50.37;102256.52;106185;1256;66473;-88
2023/12/16 09:10:21;;;;;;;;;;;;;;;10.32;49.92;102251.02;106147;1253;72691;-90
2023/12/16 09:12:49;;;;;;;;;;;;;;;10.54;49.65;102246.82;106493;1253;61324;-88
2023/12/16 09:15:22;;;;;;;;;;;;;;;10.56;49.29;102242.45;106322;1256;61972;-89
2023/12/16 09:17:56;;;;;;;;;;;;;;;10.63;49.03;102241.45;106305;1253;74601;-89
2023/12/16 09:20:24;;;;;;;;;;;;;;;10.70;48.94;102240.20;106157;1254;68334;-89
2023/12/16 09:22:57;;;;;;;;;;;;;;;10.85;48.82;102242.30;106327;1252;72651;-88
2023/12/16 09:25:31;;;;;;;;;;;;;;;10.90;48.65;102237.51;106272;1254;61263;-89
2023/12/16 09:28:05;;;;;;;;;;;;;;;10.98;48.16;102242.05;106246;1254;61086;-89
2023/12/16 09:30:33;;;;;;;;;;;;;;;10.92;48.38;102238.22;106336;1252;73497;-89
2023/12/16 09:33:07;;;;;;;;;;;;;;;10.89;48.37;102229.05;106202;1253;66480;-88
2023/12/16 09:35:47;;;;;;;;;;;;;;;10.89;48.10;102226.11;106189;1255;71115;-88
2023/12/16 09:38:14;;;;;;;;;;;;;;;10.86;48.15;102228.27;106247;1255;61237;-89
2023/12/16 09:40:48;;;;;;;;;;;;;;;10.87;48.09;102226.98;106177;1254;61331;-87
2023/12/16 09:43:22;;;;;;;;;;;;;;;10.87;48.00;102226.18;106266;1254;74713;-88
2023/12/16 09:45:56;;;;;;;;;;;;;;;10.93;47.86;102222.92;106384;1253;68829;-87
2023/12/16 09:48:29;;;;;;;;;;;;;;;10.96;47.41;102217.95;106329;1253;73122;-87
2023/12/16 09:51:04;;;;;;;;;;;;;;;10.98;47.30;102211.70;106272;1253;61321;-87
2023/12/16 09:53:39;;;;;;;;;;;;;;;10.92;47.28;102213.64;106664;1256;61492;-87
2023/12/16 09:56:13;;;;;;;;;;;;;;;10.77;47.57;102214.51;106648;1255;74941;-88
2023/12/16 09:58:47;;;;;;;;;;;;;;;10.75;47.90;102215.84;106634;1253;67134;-87
2023/12/16 10:01:26;;;;;;;;;;;;;;;10.77;47.37;102215.92;106693;1253;72659;-87
2023/12/16 10:04:09;;;;;;;;;;;;;;;10.83;46.85;102220.92;106307;1253;61166;-87
2023/12/16 10:06:43;;;;;;;;;;;;;;;10.83;46.62;102224.92;106294;1254;61366;-87
2023/12/16 10:09:17;;;;;;;;;;;;;;;10.97;46.43;102230.66;106320;1258;74605;-87
2023/12/16 10:11:59;;;;;;;;;;;;;;;10.86;46.62;102235.34;106289;1258;66539;-88
2023/12/16 10:14:50;;;;;;;;;;;;;;;10.93;46.54;102239.50;106901;1254;71477;-88
2023/12/16 10:17:25;;;;;;;;;;;;;;;11.00;46.40;102236.42;106245;1255;61250;-88
2023/12/16 10:19:58;;;;;;;;;;;;;;;11.02;46.36;102237.19;106357;1254;61179;-87
2023/12/16 10:22:39;;;;;;;;;;;;;;;10.95;46.52;102238.71;106221;1255;74654;-88
2023/12/16 10:25:13;;;;;;;;;;;;;;;10.98;46.36;102228.89;106250;1253;68378;-88
2023/12/16 10:27:43;;;;;;;;;;;;;;;11.19;45.95;102227.27;106183;1254;71841;-88
2023/12/16 10:30:16;;;;;;;;;;;;;;;11.18;46.26;102226.81;106269;1257;61282;-88
2023/12/16 10:32:55;;;;;;;;;;;;;;;11.35;46.13;102229.02;106127;1259;61306;-88
2023/12/16 10:35:29;;;;;;;;;;;;;;;11.32;45.82;102224.48;106195;1253;73424;-87
2023/12/16 10:37:57;;;;;;;;;;;;;;;11.24;46.03;102223.76;106286;1253;68730;-88
2023/12/16 10:40:27;;;;;;;;;;;;;;;11.25;46.02;102220.12;106256;1253;72407;-88
2023/12/16 10:43:05;;;;;;;;;;;;;;;11.24;45.92;102216.65;106351;1256;61180;-89
2023/12/16 10:45:38;;;;;;;;;;;;;;;11.22;46.03;102215.01;106391;1257;61295;-88
2023/12/16 10:48:07;;;;;;;;;;;;;;;11.17;46.12;102211.14;106397;1254;74688;-88
2023/12/16 10:50:44;;;;;;;;;;;;;;;11.22;45.97;102208.45;106020;1253;68597;-88
2023/12/16 10:53:20;;;;;;;;;;;;;;;11.19;45.80;102199.90;106297;1253;71028;-89
2023/12/16 10:56:02;;;;;;;;;;;;;;;11.11;45.91;102202.30;106370;1253;61333;-89
2023/12/16 10:58:30;;;;;;;;;;;;;;;11.12;45.86;102202.06;106098;1253;61101;-89
2023/12/16 11:01:15;;;;;;;;;;;;;;;11.02;45.98;102199.48;106345;1256;74595;-89
2023/12/16 11:03:53;;;;;;;;;;;;;;;11.13;45.90;102197.83;106546;1253;68874;-89
2023/12/16 11:06:31;;;;;;;;;;;;;;;11.17;45.86;102191.48;106323;1258;72507;-89
2023/12/16 11:09:06;;;;;;;;;;;;;;;11.22;45.92;102196.59;106156;1255;61224;-89
2023/12/16 11:11:40;;;;;;;;;;;;;;;11.17;45.87;102195.94;106263;1253;61255;-88
2023/12/16 11:14:14;;;;;;;;;;;;;;;11.08;46.35;102193.48;106210;1253;74666;-89
2023/12/16 11:17:10;;;;;;;;;;;;;;;11.13;46.55;102180.29;106065;1253;68609;-88
2023/12/16 11:19:52;;;;;;;;;;;;;;;11.27;46.31;102183.27;106217;1254;71125;-89
2023/12/16 11:22:29;;;;;;;;;;;;;;;11.29;46.32;102186.11;106183;1254;61347;-89
2023/12/16 11:25:09;;;;;;;;;;;;;;;11.29;46.15;102178.61;106444;1253;61750;-89
2023/12/16 11:27:48;;;;;;;;;;;;;;;11.34;46.00;102184.13;106324;1253;74988;-89
2023/12/16 11:30:22;;;;;;;;;;;;;;;11.24;46.04;102184.08;106282;1254;69982;-89
2023/12/16 11:32:57;;;;;;;;;;;;;;;11.36;45.95;102189.92;106343;1256;71479;-88
2023/12/16 11:35:44;;;;;;;;;;;;;;;11.43;46.10;102187.59;106197;1258;61342;-88
2023/12/16 11:38:41;;;;;;;;;;;;;;;11.67;45.64;102190.38;106452;1254;61144;-88
2023/12/16 11:41:43;;;;;;;;;;;;;;;11.72;45.46;102192.33;106188;1254;74606;-88
2023/12/16 11:44:17;;;;;;;;;;;;;;;11.61;45.37;102191.29;106141;1259;68125;-89
2023/12/16 11:46:50;;;;;;;;;;;;;;;11.56;45.60;102193.72;106252;1253;72762;-89
2023/12/16 11:49:30;;;;;;;;;;;;;;;11.47;45.65;102192.17;106176;1253;61254;-89
2023/12/16 11:52:10;;;;;;;;;;;;;;;11.42;45.71;102186.25;106173;1253;59644;-89
2023/12/16 11:54:44;;;;;;;;;;;;;;;11.53;45.58;102183.59;106215;1254;74634;-88
2023/12/16 11:57:17;;;;;;;;;;;;;;;11.52;45.83;102186.70;106277;1254;67225;-89
2023/12/16 11:59:57;;;;;;;;;;;;;;;11.43;46.01;102181.58;106243;1252;71393;-89
2023/12/16 12:02:31;;;;;;;;;;;;;;;11.35;46.27;102178.90;106301;1257;61340;-90
2023/12/16 12:05:00;;;;;;;;;;;;;;;11.47;46.17;102176.02;106134;1256;61203;-89
2023/12/16 12:07:34;;;;;;;;;;;;;;;11.39;46.43;102177.02;106406;1253;76678;-89
2023/12/16 12:10:09;;;;;;;;;;;;;;;11.45;46.34;102173.89;106235;1253;68671;-89
2023/12/16 12:12:42;;;;;;;;;;;;;;;11.57;46.08;102174.10;106315;1258;72473;-89
2023/12/16 12:15:10;;;;;;;;;;;;;;;11.48;46.26;102172.52;106255;1253;61179;-89
2023/12/16 12:17:44;;;;;;;;;;;;;;;11.33;46.49;102175.95;106301;1258;61257;-88
2023/12/16 12:20:18;;;;;;;;;;;;;;;11.42;46.44;102174.01;106172;1254;74601;-88
2023/12/16 12:22:45;;;;;;;;;;;;;;;11.30;46.75;102174.80;106268;1253;68442;-88
2023/12/16 12:25:22;;;;;;;;;;;;;;;11.29;46.74;102175.88;106287;1253;72512;-88
2023/12/16 12:27:56;;;;;;;;;;;;;;;11.22;46.95;102180.69;106272;1254;61151;-89
2023/12/16 12:30:30;;;;;;;;;;;;;;;11.26;46.99;102179.86;106192;1254;61291;-88
2023/12/16 16:33:19;;;;;;;;;;;;;;;10.81;57.47;102099.96;106153;1256;74696;-88
2023/12/16 16:35:49;;;;;;;;;;;;;;;10.75;58.02;102097.66;106266;1253;71021;-88
2023/12/16 16:38:24;;;;;;;;;;;;;;;10.80;58.11;102096.29;106256;1253;74999;-88
2023/12/16 16:40:58;;;;;;;;;;;;;;;10.87;57.93;102094.95;106167;1253;62432;-89
2023/12/16 16:43:27;;;;;;;;;;;;;;;10.91;57.94;102087.15;106289;1256;61304;-88
2023/12/16 16:46:04;;;;;;;;;;;;;;;10.87;58.14;102084.45;106273;1258;74697;-88
2023/12/16 16:48:37;;;;;;;;;;;;;;;10.54;59.68;102087.63;106211;1253;70297;-89
2023/12/16 16:51:11;;;;;;;;;;;;;;;10.41;61.00;102087.81;106256;1255;75115;-89
2023/12/16 16:53:47;;;;;;;;;;;;;;;10.66;60.46;102082.63;106295;1258;61461;-89
2023/12/16 16:56:15;;;;;;;;;;;;;;;10.67;60.29;102083.53;106422;1258;62300;-89
2023/12/16 16:58:49;;;;;;;;;;;;;;;10.61;60.90;102085.64;106176;1253;74309;-89
2023/12/16 17:01:23;;;;;;;;;;;;;;;10.58;61.54;102090.88;106740;1253;68545;-89
2023/12/16 17:03:57;;;;;;;;;;;;;;;10.64;61.43;102092.92;106387;1253;74561;-88
2023/12/16 17:06:36;;;;;;;;;;;;;;;10.63;61.50;102092.48;106534;1258;62767;-88
2023/12/16 17:09:07;;;;;;;;;;;;;;;10.62;61.77;102091.61;106510;1258;61739;-88
2023/12/16 17:11:48;;;;;;;;;;;;;;;10.65;61.71;102095.85;106528;1260;75110;-88
2023/12/16 17:14:26;;;;;;;;;;;;;;;10.67;61.99;102097.36;106590;1258;70724;-89
2023/12/16 17:16:55;;;;;;;;;;;;;;;10.82;61.35;102092.45;106528;1253;73585;-88
2023/12/16 17:19:30;;;;;;;;;;;;;;;10.85;61.31;102093.54;106459;1255;61337;-88
2023/12/16 17:22:08;;;;;;;;;;;;;;;10.84;61.37;102093.67;106498;1255;61311;-86
2023/12/16 17:24:42;;;;;;;;;;;;;;;10.85;61.63;102086.92;106374;1258;74634;-86
2023/12/16 17:27:16;;;;;;;;;;;;;;;10.98;61.06;102085.22;106454;1253;72211;-86
2023/12/16 17:29:44;;;;;;;;;;;;;;;10.88;61.69;102084.91;106506;1258;72700;-86
2023/12/16 17:32:18;;;;;;;;;;;;;;;10.87;62.17;102088.23;106484;1258;61311;-86
2023/12/16 17:34:51;;;;;;;;;;;;;;;10.93;62.13;102087.98;106537;1253;61344;-86
2023/12/16 17:37:19;;;;;;;;;;;;;;;10.98;62.06;102086.48;106366;1253;73369;-86
2023/12/16 17:39:53;;;;;;;;;;;;;;;10.94;62.30;102088.16;106414;1253;68444;-86
2023/12/16 17:42:20;;;;;;;;;;;;;;;11.03;62.05;102092.65;106519;1253;71462;-87
2023/12/16 17:44:54;;;;;;;;;;;;;;;11.01;62.10;102095.23;106464;1254;61780;-87